^^
Grace C. Lehan Memorial Weather Station Historical Data
Daily Summary for February 3, 2021 Units:  Both    English   Metric
Daily Weekly Monthly Yearly
  High: Low: Average:
Temperature: 43.4 °F /  6.3 °C 37.2 °F /  2.9 °C 41.1 °F /  5.1 °C
Dew Point: 39.6 °F /  4.2 °C 22.3 °F /  -5.4 °C 30 °F /  -1.1 °C
Humidity: 91% 48.1% 65%
Wind Speed: 15.4mph /  24.8km/h - 5.2mph /  8.4km/h
Wind Gust: 28mph /  45.1km/h - -
Wind- - WNW
Pressure: 29.96 in /  1014.4 hPa 29.54 in /  1000.2 hPa -
Precipitation: 0.00 in /  0 mm    
 
 
Tabular Data for February 3, 2021
Time Temperature Dew Point Pressure Wind Wind Speed Wind Gust Humidity Rainfall Rate (Hourly) solar
00:04 42 °F /  5.6 °C 39.6 °F /  4.2 °C 29.55in /  1000.6hPa West 0.6mph /  1km/h 6mph /  9.7km/h 91% 0.00in /  0mm 0 W/m2
00:09 42 °F /  5.6 °C 39.6 °F /  4.2 °C 29.55in /  1000.6hPa West 0.7mph /  1.1km/h 4mph /  6.4km/h 91% 0.00in /  0mm 0 W/m2
00:14 42 °F /  5.6 °C 39.6 °F /  4.2 °C 29.54in /  1000.2hPa West 0.4mph /  0.6km/h 4mph /  6.4km/h 91% 0.00in /  0mm 0 W/m2
00:19 41.9 °F /  5.5 °C 39.5 °F /  4.2 °C 29.55in /  1000.6hPa West 0.5mph /  0.8km/h 4mph /  6.4km/h 91% 0.00in /  0mm 0 W/m2
00:24 41.9 °F /  5.5 °C 39.5 °F /  4.2 °C 29.55in /  1000.6hPa West 1mph /  1.6km/h 5mph /  8km/h 91% 0.00in /  0mm 0 W/m2
00:29 41.9 °F /  5.5 °C 39.5 °F /  4.2 °C 29.56in /  1000.9hPa West 1.6mph /  2.6km/h 7mph /  11.3km/h 91% 0.00in /  0mm 0 W/m2
00:34 41.9 °F /  5.5 °C 39.3 °F /  4.1 °C 29.56in /  1000.9hPa WSW 1.3mph /  2.1km/h 7mph /  11.3km/h 90.4% 0.00in /  0mm 0 W/m2
00:39 41.9 °F /  5.5 °C 39.2 °F /  4 °C 29.56in /  1000.9hPa WSW 1.9mph /  3.1km/h 6mph /  9.7km/h 90% 0.00in /  0mm 0 W/m2
00:44 41.9 °F /  5.5 °C 39.2 °F /  4 °C 29.56in /  1000.9hPa WSW 2.4mph /  3.9km/h 11mph /  17.7km/h 90% 0.00in /  0mm 0 W/m2
00:49 41.9 °F /  5.5 °C 39.1 °F /  3.9 °C 29.56in /  1000.9hPa WSW 2.5mph /  4km/h 12mph /  19.3km/h 89.8% 0.00in /  0mm 0 W/m2
00:54 42 °F /  5.6 °C 39 °F /  3.9 °C 29.56in /  1000.9hPa WSW 2.1mph /  3.4km/h 12mph /  19.3km/h 89% 0.00in /  0mm 0 W/m2
00:59 42.1 °F /  5.6 °C 38.9 °F /  3.8 °C 29.57in /  1001.2hPa WSW 1.6mph /  2.6km/h 12mph /  19.3km/h 88.5% 0.00in /  0mm 0 W/m2
01:04 42.2 °F /  5.7 °C 38.9 °F /  3.8 °C 29.57in /  1001.2hPa West 1.6mph /  2.6km/h 12mph /  19.3km/h 88% 0.00in /  0mm 0 W/m2
01:09 42.4 °F /  5.8 °C 39.1 °F /  3.9 °C 29.57in /  1001.2hPa WSW 2.9mph /  4.7km/h 10mph /  16.1km/h 88% 0.00in /  0mm 0 W/m2
01:14 42.5 °F /  5.8 °C 39.2 °F /  4 °C 29.57in /  1001.2hPa West 1.4mph /  2.3km/h 10mph /  16.1km/h 88% 0.00in /  0mm 0 W/m2
01:19 42.5 °F /  5.8 °C 39.1 °F /  3.9 °C 29.57in /  1001.2hPa West 0.6mph /  1km/h 10mph /  16.1km/h 87.6% 0.00in /  0mm 0 W/m2
01:24 42.5 °F /  5.8 °C 38.9 °F /  3.8 °C 29.57in /  1001.2hPa WSW 0.8mph /  1.3km/h 10mph /  16.1km/h 87% 0.00in /  0mm 0 W/m2
01:29 42.4 °F /  5.8 °C 38.7 °F /  3.7 °C 29.57in /  1001.2hPa WSW 1.2mph /  1.9km/h 10mph /  16.1km/h 86.7% 0.00in /  0mm 0 W/m2
01:34 42.4 °F /  5.8 °C 38.5 °F /  3.6 °C 29.56in /  1000.9hPa West 0.4mph /  0.6km/h 10mph /  16.1km/h 86% 0.00in /  0mm 0 W/m2
01:39 42.3 °F /  5.7 °C 38.4 °F /  3.6 °C 29.57in /  1001.2hPa West 0.1mph /  0.2km/h 5mph /  8km/h 86% 0.00in /  0mm 0 W/m2
01:44 42.2 °F /  5.7 °C 38.3 °F /  3.5 °C 29.58in /  1001.6hPa Calm   5mph /  8km/h 86% 0.00in /  0mm 0 W/m2
01:49 42 °F /  5.6 °C 37.9 °F /  3.3 °C 29.58in /  1001.6hPa West 0.5mph /  0.8km/h 5mph /  8km/h 85.2% 0.00in /  0mm 0 W/m2
01:54 41.9 °F /  5.5 °C 37.9 °F /  3.3 °C 29.59in /  1001.9hPa Calm   5mph /  8km/h 85.4% 0.00in /  0mm 0 W/m2
01:59 41.9 °F /  5.5 °C 37.7 °F /  3.2 °C 29.59in /  1001.9hPa WSW 0.6mph /  1km/h 6mph /  9.7km/h 85% 0.00in /  0mm 0 W/m2
02:04 41.8 °F /  5.4 °C 37.6 °F /  3.1 °C 29.59in /  1001.9hPa West 0.3mph /  0.5km/h 6mph /  9.7km/h 85% 0.00in /  0mm 0 W/m2
02:09 41.8 °F /  5.4 °C 37.4 °F /  3 °C 29.60in /  1002.3hPa NW 0.8mph /  1.3km/h 4mph /  6.4km/h 84.2% 0.00in /  0mm 0 W/m2
02:14 41.9 °F /  5.5 °C 37.3 °F /  2.9 °C 29.60in /  1002.3hPa Calm   4mph /  6.4km/h 83.6% 0.00in /  0mm 0 W/m2
02:19 42 °F /  5.6 °C 37.2 °F /  2.9 °C 29.60in /  1002.3hPa Calm   4mph /  6.4km/h 83% 0.00in /  0mm 0 W/m2
02:24 42.1 °F /  5.6 °C 37 °F /  2.8 °C 29.60in /  1002.3hPa West 0.1mph /  0.2km/h 4mph /  6.4km/h 82.1% 0.00in /  0mm 0 W/m2
02:29 42.1 °F /  5.6 °C 36.9 °F /  2.7 °C 29.60in /  1002.3hPa Calm   4mph /  6.4km/h 81.8% 0.00in /  0mm 0 W/m2
02:34 42.1 °F /  5.6 °C 36.7 °F /  2.6 °C 29.60in /  1002.3hPa West 0.1mph /  0.2km/h 4mph /  6.4km/h 81% 0.00in /  0mm 0 W/m2
02:39 42 °F /  5.6 °C 36.6 °F /  2.6 °C 29.60in /  1002.3hPa Calm   2mph /  3.2km/h 81% 0.00in /  0mm 0 W/m2
02:44 42 °F /  5.6 °C 36.6 °F /  2.6 °C 29.60in /  1002.3hPa NW 0.4mph /  0.6km/h 4mph /  6.4km/h 81% 0.00in /  0mm 0 W/m2
02:49 41.9 °F /  5.5 °C 36.2 °F /  2.3 °C 29.60in /  1002.3hPa NNW 0.4mph /  0.6km/h 4mph /  6.4km/h 80% 0.00in /  0mm 0 W/m2
02:54 42 °F /  5.6 °C 36.3 °F /  2.4 °C 29.61in /  1002.6hPa NNW 0.1mph /  0.2km/h 4mph /  6.4km/h 80% 0.00in /  0mm 0 W/m2
02:59 41.9 °F /  5.5 °C 36.1 °F /  2.3 °C 29.61in /  1002.6hPa NW 2mph /  3.2km/h 7mph /  11.3km/h 79.7% 0.00in /  0mm 0 W/m2
03:04 41.9 °F /  5.5 °C 36 °F /  2.2 °C 29.61in /  1002.6hPa WNW 0.7mph /  1.1km/h 7mph /  11.3km/h 79.4% 0.00in /  0mm 0 W/m2
03:09 41.8 °F /  5.4 °C 35.8 °F /  2.1 °C 29.61in /  1002.6hPa WNW 0.9mph /  1.4km/h 5mph /  8km/h 79.2% 0.00in /  0mm 0 W/m2
03:14 41.6 °F /  5.3 °C 35.6 °F /  2 °C 29.61in /  1002.6hPa WNW 3.7mph /  6km/h 12mph /  19.3km/h 78.8% 0.00in /  0mm 0 W/m2
03:19 41.6 °F /  5.3 °C 35.3 °F /  1.8 °C 29.62in /  1002.9hPa WNW 1.5mph /  2.4km/h 12mph /  19.3km/h 78% 0.00in /  0mm 0 W/m2
03:24 41.6 °F /  5.3 °C 35.3 °F /  1.8 °C 29.62in /  1002.9hPa WNW 1.6mph /  2.6km/h 12mph /  19.3km/h 78% 0.00in /  0mm 0 W/m2
03:29 41.6 °F /  5.3 °C 35.2 °F /  1.8 °C 29.62in /  1002.9hPa West 1mph /  1.6km/h 12mph /  19.3km/h 78% 0.00in /  0mm 0 W/m2
03:34 41.5 °F /  5.3 °C 35 °F /  1.7 °C 29.62in /  1002.9hPa West 3.2mph /  5.1km/h 12mph /  19.3km/h 77.6% 0.00in /  0mm 0 W/m2
03:39 41.4 °F /  5.2 °C 34.7 °F /  1.5 °C 29.62in /  1002.9hPa WNW 2mph /  3.2km/h 11mph /  17.7km/h 77% 0.00in /  0mm 0 W/m2
03:44 41.4 °F /  5.2 °C 34.7 °F /  1.5 °C 29.62in /  1002.9hPa WNW 1.1mph /  1.8km/h 11mph /  17.7km/h 77% 0.00in /  0mm 0 W/m2
03:49 41.3 °F /  5.2 °C 34.7 °F /  1.5 °C 29.63in /  1003.3hPa WNW 0.5mph /  0.8km/h 11mph /  17.7km/h 77% 0.00in /  0mm 0 W/m2
03:54 41.2 °F /  5.1 °C 34.6 °F /  1.4 °C 29.64in /  1003.6hPa WNW 0.3mph /  0.5km/h 11mph /  17.7km/h 77% 0.00in /  0mm 0 W/m2
03:59 41.1 °F /  5.1 °C 34.4 °F /  1.3 °C 29.64in /  1003.6hPa WNW 0.7mph /  1.1km/h 11mph /  17.7km/h 77% 0.00in /  0mm 0 W/m2
04:00 41 °F /  5 °C 34.3 °F /  1.3 °C 29.63in /  1003.3hPa Calm   11mph /  17.7km/h 77% 0.00in /  0mm 0 W/m2
04:09 40.9 °F /  4.9 °C 34.2 °F /  1.2 °C 29.64in /  1003.6hPa WNW 3.8mph /  6.1km/h 15mph /  24.1km/h 76.8% 0.00in /  0mm 0 W/m2
04:14 41 °F /  5 °C 33.7 °F /  0.9 °C 29.64in /  1003.6hPa WNW 5.4mph /  8.7km/h 15mph /  24.1km/h 75.1% 0.00in /  0mm 0 W/m2
04:19 41.2 °F /  5.1 °C 33.6 °F /  0.9 °C 29.64in /  1003.6hPa WNW 6.3mph /  10.1km/h 16mph /  25.7km/h 74.2% 0.00in /  0mm 0 W/m2
04:24 41.4 °F /  5.2 °C 33.5 °F /  0.8 °C 29.65in /  1003.9hPa WNW 8.1mph /  13km/h 16mph /  25.7km/h 73.2% 0.00in /  0mm 0 W/m2
04:29 41.6 °F /  5.3 °C 33.3 °F /  0.7 °C 29.65in /  1003.9hPa WNW 8.7mph /  14km/h 18mph /  29km/h 72.1% 0.00in /  0mm 0 W/m2
04:34 41.8 °F /  5.4 °C 33.3 °F /  0.7 °C 29.65in /  1003.9hPa WNW 7.5mph /  12.1km/h 18mph /  29km/h 71.7% 0.00in /  0mm 0 W/m2
04:39 41.8 °F /  5.4 °C 33.1 °F /  0.6 °C 29.66in /  1004.3hPa WNW 7.1mph /  11.4km/h 15mph /  24.1km/h 70.9% 0.00in /  0mm 0 W/m2
04:44 41.8 °F /  5.4 °C 32.8 °F /  0.4 °C 29.66in /  1004.3hPa WNW 5.8mph /  9.3km/h 16mph /  25.7km/h 70% 0.00in /  0mm 0 W/m2
04:49 41.8 °F /  5.4 °C 32.7 °F /  0.4 °C 29.66in /  1004.3hPa NW 5.8mph /  9.3km/h 16mph /  25.7km/h 70% 0.00in /  0mm 0 W/m2
04:54 41.7 °F /  5.4 °C 32.6 °F /  0.3 °C 29.67in /  1004.6hPa NW 2.8mph /  4.5km/h 16mph /  25.7km/h 70% 0.00in /  0mm 0 W/m2
04:59 41.6 °F /  5.3 °C 32.5 °F /  0.3 °C 29.68in /  1005hPa WNW 5.1mph /  8.2km/h 16mph /  25.7km/h 70% 0.00in /  0mm 0 W/m2
05:04 41.4 °F /  5.2 °C 32.1 °F /  0.1 °C 29.68in /  1005hPa NW 8.9mph /  14.3km/h 20mph /  32.2km/h 69.3% 0.00in /  0mm 0 W/m2
05:09 41.4 °F /  5.2 °C 31.6 °F /  -0.2 °C 29.68in /  1005hPa NW 8.3mph /  13.4km/h 20mph /  32.2km/h 67.8% 0.00in /  0mm 0 W/m2
05:14 41.5 °F /  5.3 °C 31.3 °F /  -0.4 °C 29.68in /  1005hPa NW 10.8mph /  17.4km/h 24mph /  38.6km/h 66.8% 0.00in /  0mm 0 W/m2
05:19 41.4 °F /  5.2 °C 31.3 °F /  -0.4 °C 29.69in /  1005.3hPa NW 8.1mph /  13km/h 24mph /  38.6km/h 66.8% 0.00in /  0mm 0 W/m2
05:24 41.4 °F /  5.2 °C 31.2 °F /  -0.4 °C 29.69in /  1005.3hPa WNW 7mph /  11.3km/h 24mph /  38.6km/h 66.7% 0.00in /  0mm 0 W/m2
05:29 41.3 °F /  5.2 °C 31.2 °F /  -0.4 °C 29.70in /  1005.6hPa WNW 2.8mph /  4.5km/h 24mph /  38.6km/h 67% 0.00in /  0mm 0 W/m2
05:34 41.2 °F /  5.1 °C 31.1 °F /  -0.5 °C 29.70in /  1005.6hPa WNW 6.9mph /  11.1km/h 24mph /  38.6km/h 67.2% 0.00in /  0mm 0 W/m2
05:38 41 °F /  5 °C 31.3 °F /  -0.4 °C 29.71in /  1006hPa WNW 5.7mph /  9.2km/h 16mph /  25.7km/h 68% 0.00in /  0mm 0 W/m2
05:44 40.9 °F /  4.9 °C 31.2 °F /  -0.4 °C 29.72in /  1006.3hPa WNW 10.4mph /  16.7km/h 25mph /  40.2km/h 68.1% 0.00in /  0mm 0 W/m2
05:49 40.9 °F /  4.9 °C 31.5 °F /  -0.3 °C 29.72in /  1006.3hPa WNW 11.6mph /  18.7km/h 25mph /  40.2km/h 69% 0.00in /  0mm 0 W/m2
05:54 40.8 °F /  4.9 °C 31.4 °F /  -0.3 °C 29.72in /  1006.3hPa WNW 9.1mph /  14.6km/h 25mph /  40.2km/h 69% 0.00in /  0mm 0 W/m2
05:59 40.7 °F /  4.8 °C 31.7 °F /  -0.2 °C 29.72in /  1006.3hPa WNW 6.2mph /  10km/h 25mph /  40.2km/h 70% 0.00in /  0mm 0 W/m2
06:04 40.6 °F /  4.8 °C 31.6 °F /  -0.2 °C 29.73in /  1006.7hPa NW 8.6mph /  13.8km/h 25mph /  40.2km/h 70% 0.00in /  0mm 0 W/m2
06:09 40.4 °F /  4.7 °C 31.3 °F /  -0.4 °C 29.73in /  1006.7hPa WNW 9.9mph /  15.9km/h 21mph /  33.8km/h 69.5% 0.00in /  0mm 0 W/m2
06:14 40.4 °F /  4.7 °C 31.1 °F /  -0.5 °C 29.74in /  1007hPa NW 7.1mph /  11.4km/h 21mph /  33.8km/h 69.3% 0.00in /  0mm 0 W/m2
06:19 40.4 °F /  4.7 °C 31.1 °F /  -0.5 °C 29.74in /  1007hPa NW 7mph /  11.3km/h 21mph /  33.8km/h 69.1% 0.00in /  0mm 0 W/m2
06:24 40.3 °F /  4.6 °C 31 °F /  -0.6 °C 29.74in /  1007hPa WNW 5.1mph /  8.2km/h 21mph /  33.8km/h 69% 0.00in /  0mm 0 W/m2
06:29 40.3 °F /  4.6 °C 30.9 °F /  -0.6 °C 29.74in /  1007hPa WNW 8.9mph /  14.3km/h 21mph /  33.8km/h 68.8% 0.00in /  0mm 0 W/m2
06:34 40.2 °F /  4.6 °C 30.5 °F /  -0.8 °C 29.74in /  1007hPa NW 6.8mph /  10.9km/h 21mph /  33.8km/h 67.9% 0.00in /  0mm 0 W/m2
06:39 40.2 °F /  4.6 °C 30.4 °F /  -0.9 °C 29.74in /  1007hPa NW 4.6mph /  7.4km/h 14mph /  22.5km/h 67.7% 0.00in /  0mm 0 W/m2
06:44 40.2 °F /  4.6 °C 30.5 °F /  -0.8 °C 29.74in /  1007hPa WNW 2.7mph /  4.3km/h 14mph /  22.5km/h 68% 0.00in /  0mm 0 W/m2
06:49 40.1 °F /  4.5 °C 30.4 °F /  -0.9 °C 29.75in /  1007.3hPa WNW 0.7mph /  1.1km/h 14mph /  22.5km/h 67.9% 0.00in /  0mm 0 W/m2
06:54 40.1 °F /  4.5 °C 30.4 °F /  -0.9 °C 29.76in /  1007.7hPa NW 1.9mph /  3.1km/h 14mph /  22.5km/h 67.9% 0.00in /  0mm 0 W/m2
06:59 40.1 °F /  4.5 °C 30.3 °F /  -0.9 °C 29.77in /  1008hPa NW 5.3mph /  8.5km/h 14mph /  22.5km/h 67.7% 0.00in /  0mm 0 W/m2
07:04 40 °F /  4.4 °C 29.9 °F /  -1.2 °C 29.77in /  1008hPa NW 5.4mph /  8.7km/h 14mph /  22.5km/h 67% 0.00in /  0mm 0 W/m2
07:09 40 °F /  4.4 °C 30 °F /  -1.1 °C 29.77in /  1008hPa NW 2.7mph /  4.3km/h 14mph /  22.5km/h 67.2% 0.00in /  0mm 0 W/m2
07:14 40 °F /  4.4 °C 30.4 °F /  -0.9 °C 29.77in /  1008hPa WNW 1mph /  1.6km/h 14mph /  22.5km/h 68.3% 0.00in /  0mm 0 W/m2
07:19 39.9 °F /  4.4 °C 30.5 °F /  -0.8 °C 29.77in /  1008hPa NW 3.2mph /  5.1km/h 14mph /  22.5km/h 69% 0.00in /  0mm 5 W/m2
07:24 39.8 °F /  4.3 °C 30.6 °F /  -0.8 °C 29.78in /  1008.4hPa WNW 1.7mph /  2.7km/h 14mph /  22.5km/h 69.4% 0.00in /  0mm 9 W/m2
07:29 39.7 °F /  4.3 °C 30.6 °F /  -0.8 °C 29.78in /  1008.4hPa WNW 3.3mph /  5.3km/h 14mph /  22.5km/h 69.6% 0.00in /  0mm 9 W/m2
07:34 39.6 °F /  4.2 °C 30.2 °F /  -1 °C 29.79in /  1008.7hPa NW 4mph /  6.4km/h 14mph /  22.5km/h 69% 0.00in /  0mm 9 W/m2
07:39 39.5 °F /  4.2 °C 29.8 °F /  -1.2 °C 29.79in /  1008.7hPa NW 5.3mph /  8.5km/h 15mph /  24.1km/h 68% 0.00in /  0mm 12 W/m2
07:44 39.4 °F /  4.1 °C 29.7 °F /  -1.3 °C 29.79in /  1008.7hPa NW 5.9mph /  9.5km/h 15mph /  24.1km/h 68% 0.00in /  0mm 16 W/m2
07:49 39.3 °F /  4.1 °C 29.6 °F /  -1.3 °C 29.80in /  1009hPa WNW 3.8mph /  6.1km/h 16mph /  25.7km/h 68% 0.00in /  0mm 16 W/m2
07:54 39.2 °F /  4 °C 29.2 °F /  -1.6 °C 29.80in /  1009hPa WNW 6.3mph /  10.1km/h 18mph /  29km/h 67.1% 0.00in /  0mm 21 W/m2
07:59 39.1 °F /  3.9 °C 28.8 °F /  -1.8 °C 29.80in /  1009hPa NW 10.6mph /  17.1km/h 23mph /  37km/h 66% 0.00in /  0mm 23 W/m2
08:00 39.1 °F /  3.9 °C 28.7 °F /  -1.8 °C 29.80in /  1009hPa WNW 10mph /  16.1km/h 23mph /  37km/h 66% 0.00in /  0mm 23 W/m2
08:09 38.9 °F /  3.8 °C 28.5 °F /  -1.9 °C 29.81in /  1009.4hPa NW 8.3mph /  13.4km/h 15mph /  24.1km/h 66% 0.00in /  0mm 37 W/m2
08:14 38.9 °F /  3.8 °C 28.5 °F /  -1.9 °C 29.81in /  1009.4hPa WNW 4.4mph /  7.1km/h 15mph /  24.1km/h 66% 0.00in /  0mm 42 W/m2
08:19 38.8 °F /  3.8 °C 28.5 °F /  -1.9 °C 29.81in /  1009.4hPa WNW 5.3mph /  8.5km/h 15mph /  24.1km/h 66% 0.00in /  0mm 39 W/m2
08:24 38.8 °F /  3.8 °C 28.4 °F /  -2 °C 29.81in /  1009.4hPa NW 9mph /  14.5km/h 23mph /  37km/h 66% 0.00in /  0mm 51 W/m2
08:29 38.8 °F /  3.8 °C 28.2 °F /  -2.1 °C 29.81in /  1009.4hPa NW 2.8mph /  4.5km/h 23mph /  37km/h 65.4% 0.00in /  0mm 56 W/m2
08:34 38.8 °F /  3.8 °C 28.1 °F /  -2.2 °C 29.81in /  1009.4hPa NW 6.7mph /  10.8km/h 23mph /  37km/h 65.1% 0.00in /  0mm 54 W/m2
08:39 38.8 °F /  3.8 °C 28 °F /  -2.2 °C 29.81in /  1009.4hPa NW 6.9mph /  11.1km/h 23mph /  37km/h 64.9% 0.00in /  0mm 72 W/m2
08:44 38.8 °F /  3.8 °C 27.5 °F /  -2.5 °C 29.81in /  1009.4hPa WNW 10mph /  16.1km/h 23mph /  37km/h 63.7% 0.00in /  0mm 83 W/m2
08:49 38.8 °F /  3.8 °C 27.7 °F /  -2.4 °C 29.82in /  1009.7hPa NW 4.1mph /  6.6km/h 23mph /  37km/h 64% 0.00in /  0mm 88 W/m2
08:54 38.9 °F /  3.8 °C 27.8 °F /  -2.3 °C 29.82in /  1009.7hPa NW 2.4mph /  3.9km/h 23mph /  37km/h 64% 0.00in /  0mm 100 W/m2
08:59 39 °F /  3.9 °C 27.9 °F /  -2.3 °C 29.83in /  1010hPa WNW 1.7mph /  2.7km/h 23mph /  37km/h 64% 0.00in /  0mm 93 W/m2
09:04 39.1 °F /  3.9 °C 27.9 °F /  -2.3 °C 29.83in /  1010hPa NW 7.1mph /  11.4km/h 23mph /  37km/h 63.7% 0.00in /  0mm 98 W/m2
09:09 39.2 °F /  4 °C 27.7 °F /  -2.4 °C 29.82in /  1009.7hPa NW 7mph /  11.3km/h 17mph /  27.4km/h 63% 0.00in /  0mm 95 W/m2
09:14 39.2 °F /  4 °C 27.4 °F /  -2.6 °C 29.83in /  1010hPa WNW 8.2mph /  13.2km/h 22mph /  35.4km/h 62.3% 0.00in /  0mm 102 W/m2
09:19 39.2 °F /  4 °C 27.3 °F /  -2.6 °C 29.83in /  1010hPa NW 5mph /  8km/h 22mph /  35.4km/h 62.1% 0.00in /  0mm 98 W/m2
09:24 39.2 °F /  4 °C 27.3 °F /  -2.6 °C 29.83in /  1010hPa NW 8.7mph /  14km/h 22mph /  35.4km/h 62.1% 0.00in /  0mm 95 W/m2
09:29 39.3 °F /  4.1 °C 27.3 °F /  -2.6 °C 29.84in /  1010.4hPa NW 7.7mph /  12.4km/h 22mph /  35.4km/h 61.8% 0.00in /  0mm 91 W/m2
09:34 39.3 °F /  4.1 °C 27.1 °F /  -2.7 °C 29.84in /  1010.4hPa WNW 5.6mph /  9km/h 22mph /  35.4km/h 61.2% 0.00in /  0mm 93 W/m2
09:39 39.3 °F /  4.1 °C 27 °F /  -2.8 °C 29.85in /  1010.7hPa WNW 7.4mph /  11.9km/h 17mph /  27.4km/h 61% 0.00in /  0mm 86 W/m2
09:44 39.4 °F /  4.1 °C 27.1 °F /  -2.7 °C 29.86in /  1011.1hPa WNW 6mph /  9.7km/h 17mph /  27.4km/h 61% 0.00in /  0mm 70 W/m2
09:49 39.4 °F /  4.1 °C 27.2 °F /  -2.7 °C 29.85in /  1010.7hPa WNW 3.6mph /  5.8km/h 17mph /  27.4km/h 61.2% 0.00in /  0mm 88 W/m2
09:54 39.5 °F /  4.2 °C 27.6 °F /  -2.4 °C 29.86in /  1011.1hPa NW 4.5mph /  7.2km/h 17mph /  27.4km/h 62% 0.00in /  0mm 105 W/m2
09:59 39.6 °F /  4.2 °C 27.4 °F /  -2.6 °C 29.86in /  1011.1hPa WNW 8.5mph /  13.7km/h 19mph /  30.6km/h 61.4% 0.00in /  0mm 107 W/m2
10:04 39.7 °F /  4.3 °C 27.4 °F /  -2.6 °C 29.86in /  1011.1hPa WNW 7.2mph /  11.6km/h 19mph /  30.6km/h 61% 0.00in /  0mm 113 W/m2
10:09 39.9 °F /  4.4 °C 27.6 °F /  -2.4 °C 29.86in /  1011.1hPa WNW 8.7mph /  14km/h 18mph /  29km/h 61% 0.00in /  0mm 454 W/m2
10:14 40.2 °F /  4.6 °C 27.8 °F /  -2.3 °C 29.86in /  1011.1hPa WNW 5.7mph /  9.2km/h 18mph /  29km/h 61% 0.00in /  0mm 158 W/m2
10:19 40.4 °F /  4.7 °C 28.1 °F /  -2.2 °C 29.86in /  1011.1hPa WNW 4.7mph /  7.6km/h 18mph /  29km/h 61.1% 0.00in /  0mm 178 W/m2
10:24 40.6 °F /  4.8 °C 28.3 °F /  -2.1 °C 29.87in /  1011.4hPa WNW 8.8mph /  14.2km/h 18mph /  29km/h 61.2% 0.00in /  0mm 162 W/m2
10:29 40.6 °F /  4.8 °C 28 °F /  -2.2 °C 29.86in /  1011.1hPa NW 6.7mph /  10.8km/h 18mph /  29km/h 60.4% 0.00in /  0mm 153 W/m2
10:34 40.6 °F /  4.8 °C 28 °F /  -2.2 °C 29.86in /  1011.1hPa NW 7.9mph /  12.7km/h 18mph /  29km/h 60.5% 0.00in /  0mm 163 W/m2
10:39 40.6 °F /  4.8 °C 28.2 °F /  -2.1 °C 29.86in /  1011.1hPa NW 5.9mph /  9.5km/h 18mph /  29km/h 61% 0.00in /  0mm 304 W/m2
10:44 41 °F /  5 °C 28.9 °F /  -1.7 °C 29.86in /  1011.1hPa WNW 9.2mph /  14.8km/h 24mph /  38.6km/h 61.7% 0.00in /  0mm 497 W/m2
10:49 41.5 °F /  5.3 °C 28.7 °F /  -1.8 °C 29.86in /  1011.1hPa NW 10.3mph /  16.6km/h 24mph /  38.6km/h 60% 0.00in /  0mm 213 W/m2
10:54 41.6 °F /  5.3 °C 28.4 °F /  -2 °C 29.85in /  1010.7hPa NW 10.3mph /  16.6km/h 24mph /  38.6km/h 59.1% 0.00in /  0mm 190 W/m2
10:59 41.8 °F /  5.4 °C 28.9 °F /  -1.7 °C 29.85in /  1010.7hPa NW 6mph /  9.7km/h 24mph /  38.6km/h 60% 0.00in /  0mm 193 W/m2
11:04 42.1 °F /  5.6 °C 28.5 °F /  -1.9 °C 29.85in /  1010.7hPa WNW 9.7mph /  15.6km/h 24mph /  38.6km/h 58.3% 0.00in /  0mm 181 W/m2
11:09 42.1 °F /  5.6 °C 28.3 °F /  -2.1 °C 29.85in /  1010.7hPa NW 12mph /  19.3km/h 23mph /  37km/h 57.8% 0.00in /  0mm 165 W/m2
11:14 42.1 °F /  5.6 °C 28.3 °F /  -2.1 °C 29.85in /  1010.7hPa NW 8.7mph /  14km/h 23mph /  37km/h 57.7% 0.00in /  0mm 193 W/m2
11:19 42.3 °F /  5.7 °C 28.4 °F /  -2 °C 29.85in /  1010.7hPa WNW 10.4mph /  16.7km/h 23mph /  37km/h 57.4% 0.00in /  0mm 195 W/m2
11:24 42.6 °F /  5.9 °C 28.4 °F /  -2 °C 29.85in /  1010.7hPa NW 9.4mph /  15.1km/h 23mph /  37km/h 56.8% 0.00in /  0mm 274 W/m2
11:29 42.9 °F /  6.1 °C 28.4 °F /  -2 °C 29.85in /  1010.7hPa NW 9.4mph /  15.1km/h 23mph /  37km/h 56.3% 0.00in /  0mm 243 W/m2
11:34 43 °F /  6.1 °C 28 °F /  -2.2 °C 29.85in /  1010.7hPa WNW 12.4mph /  20km/h 23mph /  37km/h 55.1% 0.00in /  0mm 383 W/m2
11:39 43.1 °F /  6.2 °C 27.9 °F /  -2.3 °C 29.85in /  1010.7hPa WNW 15.4mph /  24.8km/h 28mph /  45.1km/h 54.8% 0.00in /  0mm 353 W/m2
11:44 43 °F /  6.1 °C 27.9 °F /  -2.3 °C 29.85in /  1010.7hPa NW 11.4mph /  18.3km/h 28mph /  45.1km/h 55% 0.00in /  0mm 320 W/m2
11:49 42.9 °F /  6.1 °C 28.1 °F /  -2.2 °C 29.85in /  1010.7hPa NW 8.5mph /  13.7km/h 28mph /  45.1km/h 55.5% 0.00in /  0mm 376 W/m2
11:54 43.1 °F /  6.2 °C 27.9 °F /  -2.3 °C 29.84in /  1010.4hPa WNW 12mph /  19.3km/h 28mph /  45.1km/h 54.8% 0.00in /  0mm 376 W/m2
11:59 43 °F /  6.1 °C 27.6 °F /  -2.4 °C 29.84in /  1010.4hPa NW 10.8mph /  17.4km/h 28mph /  45.1km/h 54.2% 0.00in /  0mm 306 W/m2
12:00 42.8 °F /  6 °C 27.8 °F /  -2.3 °C 29.84in /  1010.4hPa WNW 13mph /  20.9km/h 28mph /  45.1km/h 55% 0.00in /  0mm 306 W/m2
12:09 42.6 °F /  5.9 °C 28 °F /  -2.2 °C 29.84in /  1010.4hPa NW 9.2mph /  14.8km/h 20mph /  32.2km/h 56% 0.00in /  0mm 309 W/m2
12:14 42.7 °F /  5.9 °C 28.1 °F /  -2.2 °C 29.84in /  1010.4hPa NW 8mph /  12.9km/h 20mph /  32.2km/h 56% 0.00in /  0mm 313 W/m2
12:19 42.8 °F /  6 °C 28.1 °F /  -2.2 °C 29.84in /  1010.4hPa NW 7.1mph /  11.4km/h 21mph /  33.8km/h 55.7% 0.00in /  0mm 283 W/m2
12:24 42.8 °F /  6 °C 27.8 °F /  -2.3 °C 29.84in /  1010.4hPa NW 9.2mph /  14.8km/h 22mph /  35.4km/h 55.1% 0.00in /  0mm 142 W/m2
12:29 42.5 °F /  5.8 °C 27.9 °F /  -2.3 °C 29.85in /  1010.7hPa NW 9.1mph /  14.6km/h 22mph /  35.4km/h 56.1% 0.00in /  0mm 250 W/m2
12:34 42.5 °F /  5.8 °C 28.4 °F /  -2 °C 29.85in /  1010.7hPa WNW 7.7mph /  12.4km/h 22mph /  35.4km/h 57% 0.00in /  0mm 519 W/m2
12:39 42.8 °F /  6 °C 28.6 °F /  -1.9 °C 29.84in /  1010.4hPa NW 8.3mph /  13.4km/h 16mph /  25.7km/h 57% 0.00in /  0mm 199 W/m2
12:44 42.8 °F /  6 °C 28.7 °F /  -1.8 °C 29.84in /  1010.4hPa WNW 3.7mph /  6km/h 16mph /  25.7km/h 57% 0.00in /  0mm 246 W/m2
12:49 43.1 °F /  6.2 °C 28.8 °F /  -1.8 °C 29.84in /  1010.4hPa NW 7mph /  11.3km/h 17mph /  27.4km/h 56.6% 0.00in /  0mm 262 W/m2
12:54 43.2 °F /  6.2 °C 28 °F /  -2.2 °C 29.84in /  1010.4hPa NW 10.5mph /  16.9km/h 22mph /  35.4km/h 54.8% 0.00in /  0mm 209 W/m2
12:59 42.9 °F /  6.1 °C 27.7 °F /  -2.4 °C 29.84in /  1010.4hPa NW 7mph /  11.3km/h 22mph /  35.4km/h 54.6% 0.00in /  0mm 206 W/m2
13:04 42.9 °F /  6.1 °C 27.9 °F /  -2.3 °C 29.85in /  1010.7hPa WNW 6.8mph /  10.9km/h 22mph /  35.4km/h 54.9% 0.00in /  0mm 302 W/m2
13:09 43 °F /  6.1 °C 27.6 °F /  -2.4 °C 29.85in /  1010.7hPa NW 10.9mph /  17.5km/h 21mph /  33.8km/h 54.1% 0.00in /  0mm 155 W/m2
13:14 42.9 °F /  6.1 °C 27.4 °F /  -2.6 °C 29.85in /  1010.7hPa WNW 8mph /  12.9km/h 21mph /  33.8km/h 53.9% 0.00in /  0mm 81 W/m2
13:19 42.9 °F /  6.1 °C 27.5 °F /  -2.5 °C 29.85in /  1010.7hPa NW 7.8mph /  12.6km/h 21mph /  33.8km/h 54.1% 0.00in /  0mm 137 W/m2
13:24 42.9 °F /  6.1 °C 27.2 °F /  -2.7 °C 29.85in /  1010.7hPa NW 8.4mph /  13.5km/h 21mph /  33.8km/h 53.5% 0.00in /  0mm 102 W/m2
13:29 42.7 °F /  5.9 °C 27 °F /  -2.8 °C 29.85in /  1010.7hPa WNW 11.6mph /  18.7km/h 22mph /  35.4km/h 53.5% 0.00in /  0mm 192 W/m2
13:34 42.7 °F /  5.9 °C 27.2 °F /  -2.7 °C 29.85in /  1010.7hPa WNW 9.3mph /  15km/h 22mph /  35.4km/h 54% 0.00in /  0mm 304 W/m2
13:39 42.8 °F /  6 °C 27.3 °F /  -2.6 °C 29.85in /  1010.7hPa NW 7.5mph /  12.1km/h 18mph /  29km/h 54% 0.00in /  0mm 304 W/m2
13:44 42.8 °F /  6 °C 27.2 °F /  -2.7 °C 29.86in /  1011.1hPa WNW 6.7mph /  10.8km/h 18mph /  29km/h 53.7% 0.00in /  0mm 232 W/m2
13:49 42.9 °F /  6.1 °C 27 °F /  -2.8 °C 29.86in /  1011.1hPa NW 5.6mph /  9km/h 18mph /  29km/h 53% 0.00in /  0mm 287 W/m2
13:54 43.1 °F /  6.2 °C 27.5 °F /  -2.5 °C 29.86in /  1011.1hPa WNW 6.2mph /  10km/h 18mph /  29km/h 53.6% 0.00in /  0mm 257 W/m2
13:59 43.4 °F /  6.3 °C 26.8 °F /  -2.9 °C 29.86in /  1011.1hPa WNW 10.6mph /  17.1km/h 19mph /  30.6km/h 51.8% 0.00in /  0mm 236 W/m2
14:04 43.3 °F /  6.3 °C 26.3 °F /  -3.2 °C 29.87in /  1011.4hPa NW 7.7mph /  12.4km/h 19mph /  30.6km/h 50.8% 0.00in /  0mm 158 W/m2
14:09 43.2 °F /  6.2 °C 26.5 °F /  -3.1 °C 29.87in /  1011.4hPa NW 9.5mph /  15.3km/h 17mph /  27.4km/h 51.3% 0.00in /  0mm 214 W/m2
14:14 43.2 °F /  6.2 °C 26.3 °F /  -3.2 °C 29.87in /  1011.4hPa NW 5.4mph /  8.7km/h 18mph /  29km/h 50.9% 0.00in /  0mm 144 W/m2
14:19 43.2 °F /  6.2 °C 26.1 °F /  -3.3 °C 29.87in /  1011.4hPa WNW 8.3mph /  13.4km/h 18mph /  29km/h 50.5% 0.00in /  0mm 67 W/m2
14:24 43.3 °F /  6.3 °C 25.7 °F /  -3.5 °C 29.87in /  1011.4hPa WNW 9.9mph /  15.9km/h 20mph /  32.2km/h 49.5% 0.00in /  0mm 39 W/m2
14:29 43.1 °F /  6.2 °C 25.1 °F /  -3.8 °C 29.88in /  1011.7hPa WNW 6.5mph /  10.5km/h 20mph /  32.2km/h 48.7% 0.00in /  0mm 132 W/m2
14:34 43 °F /  6.1 °C 24.7 °F /  -4.1 °C 29.88in /  1011.7hPa WNW 6.8mph /  10.9km/h 20mph /  32.2km/h 48.1% 0.00in /  0mm 132 W/m2
14:39 43 °F /  6.1 °C 25 °F /  -3.9 °C 29.88in /  1011.7hPa WNW 6.3mph /  10.1km/h 17mph /  27.4km/h 48.7% 0.00in /  0mm 26 W/m2
14:44 43 °F /  6.1 °C 25.3 °F /  -3.7 °C 29.88in /  1011.7hPa WNW 7.2mph /  11.6km/h 17mph /  27.4km/h 49.4% 0.00in /  0mm 26 W/m2
14:49 42.8 °F /  6 °C 25.6 °F /  -3.6 °C 29.88in /  1011.7hPa NW 4.5mph /  7.2km/h 17mph /  27.4km/h 50.3% 0.00in /  0mm 25 W/m2
14:54 42.6 °F /  5.9 °C 25.5 °F /  -3.6 °C 29.88in /  1011.7hPa NW 5.6mph /  9km/h 17mph /  27.4km/h 50.5% 0.00in /  0mm 25 W/m2
14:59 42.4 °F /  5.8 °C 25.6 °F /  -3.6 °C 29.88in /  1011.7hPa NW 6.4mph /  10.3km/h 17mph /  27.4km/h 51% 0.00in /  0mm 23 W/m2
15:04 42.2 °F /  5.7 °C 25.5 °F /  -3.6 °C 29.88in /  1011.7hPa WNW 7mph /  11.3km/h 21mph /  33.8km/h 51.4% 0.00in /  0mm 23 W/m2
15:09 42 °F /  5.6 °C 25.1 °F /  -3.8 °C 29.88in /  1011.7hPa WNW 5.9mph /  9.5km/h 21mph /  33.8km/h 50.8% 0.00in /  0mm 21 W/m2
15:14 41.8 °F /  5.4 °C 25.1 °F /  -3.8 °C 29.88in /  1011.7hPa WNW 6.3mph /  10.1km/h 21mph /  33.8km/h 51% 0.00in /  0mm 21 W/m2
15:19 41.7 °F /  5.4 °C 25 °F /  -3.9 °C 29.89in /  1012.1hPa NW 3.5mph /  5.6km/h 21mph /  33.8km/h 51% 0.00in /  0mm 19 W/m2
15:24 41.6 °F /  5.3 °C 24.9 °F /  -3.9 °C 29.89in /  1012.1hPa NW 5.8mph /  9.3km/h 21mph /  33.8km/h 51.2% 0.00in /  0mm 19 W/m2
15:29 41.4 °F /  5.2 °C 24.6 °F /  -4.1 °C 29.89in /  1012.1hPa WNW 6.8mph /  10.9km/h 21mph /  33.8km/h 51% 0.00in /  0mm 18 W/m2
15:34 41.2 °F /  5.1 °C 24.4 °F /  -4.2 °C 29.90in /  1012.4hPa WNW 4.7mph /  7.6km/h 21mph /  33.8km/h 51% 0.00in /  0mm 18 W/m2
15:39 41 °F /  5 °C 24.3 °F /  -4.3 °C 29.90in /  1012.4hPa WNW 5.1mph /  8.2km/h 20mph /  32.2km/h 51% 0.00in /  0mm 16 W/m2
15:44 40.9 °F /  4.9 °C 24.2 °F /  -4.3 °C 29.91in /  1012.8hPa NW 6.7mph /  10.8km/h 20mph /  32.2km/h 51% 0.00in /  0mm 14 W/m2
15:49 40.7 °F /  4.8 °C 24 °F /  -4.4 °C 29.90in /  1012.4hPa WNW 7.4mph /  11.9km/h 20mph /  32.2km/h 51% 0.00in /  0mm 12 W/m2
15:54 40.6 °F /  4.8 °C 23.9 °F /  -4.5 °C 29.90in /  1012.4hPa WNW 3.9mph /  6.3km/h 20mph /  32.2km/h 51% 0.00in /  0mm 12 W/m2
15:59 40.5 °F /  4.7 °C 23.8 °F /  -4.6 °C 29.91in /  1012.8hPa WNW 7.1mph /  11.4km/h 20mph /  32.2km/h 51% 0.00in /  0mm 11 W/m2
16:00 40.4 °F /  4.7 °C 23.7 °F /  -4.6 °C 29.90in /  1012.4hPa WNW 1mph /  1.6km/h 20mph /  32.2km/h 51% 0.00in /  0mm 9 W/m2
16:09 40.1 °F /  4.5 °C 23.5 °F /  -4.7 °C 29.92in /  1013.1hPa NW 4.6mph /  7.4km/h 14mph /  22.5km/h 51.1% 0.00in /  0mm 7 W/m2
16:14 39.9 °F /  4.4 °C 23.5 °F /  -4.7 °C 29.92in /  1013.1hPa NW 3.2mph /  5.1km/h 14mph /  22.5km/h 51.5% 0.00in /  0mm 5 W/m2
16:19 39.7 °F /  4.3 °C 23.3 °F /  -4.8 °C 29.92in /  1013.1hPa WNW 4mph /  6.4km/h 15mph /  24.1km/h 51.3% 0.00in /  0mm 0 W/m2
16:24 39.6 °F /  4.2 °C 22.9 °F /  -5.1 °C 29.92in /  1013.1hPa WNW 2.8mph /  4.5km/h 15mph /  24.1km/h 51% 0.00in /  0mm 0 W/m2
16:29 39.4 °F /  4.1 °C 23 °F /  -5 °C 29.93in /  1013.4hPa NW 2.3mph /  3.7km/h 15mph /  24.1km/h 51.4% 0.00in /  0mm 0 W/m2
16:34 39.2 °F /  4 °C 23.1 °F /  -4.9 °C 29.93in /  1013.4hPa NNW 3.8mph /  6.1km/h 16mph /  25.7km/h 51.9% 0.00in /  0mm 0 W/m2
16:39 39.1 °F /  3.9 °C 22.9 °F /  -5.1 °C 29.93in /  1013.4hPa NW 4mph /  6.4km/h 16mph /  25.7km/h 52% 0.00in /  0mm 0 W/m2
16:44 38.9 °F /  3.8 °C 22.8 °F /  -5.1 °C 29.94in /  1013.8hPa WNW 4mph /  6.4km/h 16mph /  25.7km/h 52% 0.00in /  0mm 0 W/m2
16:49 38.8 °F /  3.8 °C 22.7 °F /  -5.2 °C 29.94in /  1013.8hPa NW 1.8mph /  2.9km/h 16mph /  25.7km/h 52% 0.00in /  0mm 0 W/m2
16:54 38.6 °F /  3.7 °C 22.5 °F /  -5.3 °C 29.94in /  1013.8hPa NW 3mph /  4.8km/h 16mph /  25.7km/h 52% 0.00in /  0mm 0 W/m2
16:59 38.5 °F /  3.6 °C 22.4 °F /  -5.3 °C 29.94in /  1013.8hPa NW 3.1mph /  5km/h 16mph /  25.7km/h 52% 0.00in /  0mm 0 W/m2
17:04 38.4 °F /  3.6 °C 22.7 °F /  -5.2 °C 29.95in /  1014.1hPa WNW 2.2mph /  3.5km/h 16mph /  25.7km/h 52.8% 0.00in /  0mm 0 W/m2
17:09 38.2 °F /  3.4 °C 22.6 °F /  -5.2 °C 29.95in /  1014.1hPa NW 1.7mph /  2.7km/h 9mph /  14.5km/h 53% 0.00in /  0mm 0 W/m2
17:14 38.1 °F /  3.4 °C 22.5 °F /  -5.3 °C 29.95in /  1014.1hPa WNW 0.2mph /  0.3km/h 9mph /  14.5km/h 53% 0.00in /  0mm 0 W/m2
17:19 37.9 °F /  3.3 °C 22.7 °F /  -5.2 °C 29.95in /  1014.1hPa WNW 0.7mph /  1.1km/h 9mph /  14.5km/h 53.7% 0.00in /  0mm 0 W/m2
17:24 37.8 °F /  3.2 °C 22.6 °F /  -5.2 °C 29.95in /  1014.1hPa NW 0.3mph /  0.5km/h 9mph /  14.5km/h 54% 0.00in /  0mm 0 W/m2
17:29 37.6 °F /  3.1 °C 22.4 °F /  -5.3 °C 29.96in /  1014.4hPa Calm   9mph /  14.5km/h 54% 0.00in /  0mm 0 W/m2
17:34 37.4 °F /  3 °C 22.3 °F /  -5.4 °C 29.96in /  1014.4hPa NW 0.6mph /  1km/h 9mph /  14.5km/h 54.1% 0.00in /  0mm 0 W/m2
17:38 37.2 °F /  2.9 °C 22.5 °F /  -5.3 °C 29.96in /  1014.4hPa Calm   6mph /  9.7km/h 55% 0.00in /  0mm 0 W/m2
Hartford County Weather
Compliments of Weather Underground - 4 mb